Pescado, New Mexico
Current Conditions -  °F | °C
As of 9:53 AM on Saturday 22 Nov 2014 (Local Time) from KGUP Reporting Station
Clear Clear  
Wind Chill: 36°   Ceiling: Unl
Heat Index: 36°   Visibility: 10mi
Dew Point: 19°   Wind: 0mph
Humidity: 50%   Direction: NA
Pressure: 30.15"   Gusts: NA
Location:  35.0898°N, 108.763°W
Report Text: KGUP 221653Z AUTO 00000KT 10SM CLR 02/M07 A3015 RMK AO2 SLP243 T00221072
Loading
Personal Weather Stations






























Interactive Weather Map New forecast layout! Learn more

10-Day Weather Forecast

Advertisements
Track Severe Weather on mobile